createdAt,value
2023-03-30T00:00:28.956Z,100552.16
2023-03-30T00:02:57.879Z,100561.88
2023-03-30T00:05:28.887Z,100552.06
2023-03-30T00:07:58.702Z,100561.34
2023-03-30T00:10:27.315Z,100558.25
2023-03-30T00:12:58.215Z,100551.88
2023-03-30T00:15:30.173Z,100547.84
2023-03-30T00:18:00.073Z,100549.16
2023-03-30T00:20:32.539Z,100557.09
2023-03-30T00:23:02.275Z,100543.06
2023-03-30T00:25:31.468Z,100531.16
2023-03-30T00:28:01.418Z,100538.38
2023-03-30T00:30:33.139Z,100533.91
2023-03-30T00:33:02.414Z,100533.31
2023-03-30T00:35:31.934Z,100530.06
2023-03-30T00:38:03.815Z,100536.34
2023-03-30T00:40:34.645Z,100529.22
2023-03-30T00:43:06.548Z,100528.75
2023-03-30T00:45:43.958Z,100510.84
2023-03-30T00:48:18.138Z,100515.34
2023-03-30T00:50:53.438Z,100518.75
2023-03-30T00:53:29.590Z,100520.22
2023-03-30T00:56:00.685Z,100518.38
2023-03-30T00:58:31.492Z,100514.25
2023-03-30T01:01:06.912Z,100510.44
2023-03-30T01:03:43.638Z,100511.31
2023-03-30T01:06:14.346Z,100500.59
2023-03-30T01:08:44.638Z,100498.00
2023-03-30T01:11:14.000Z,100485.97
2023-03-30T01:13:50.237Z,100487.44
2023-03-30T01:16:31.322Z,100486.41
2023-03-30T01:19:22.859Z,100493.34
2023-03-30T01:22:50.774Z,100485.22
2023-03-30T01:25:57.471Z,100485.56
2023-03-30T01:28:33.757Z,100482.44
2023-03-30T01:31:33.458Z,100477.72
2023-03-30T01:34:52.054Z,100476.75
2023-03-30T01:38:18.354Z,100475.03
2023-03-30T01:40:59.459Z,100473.22
2023-03-30T01:43:37.931Z,100478.31
2023-03-30T01:46:14.770Z,100471.47
2023-03-30T01:48:50.443Z,100472.19
2023-03-30T01:51:27.017Z,100465.38
2023-03-30T01:54:06.663Z,100465.03
2023-03-30T01:56:43.153Z,100454.75
2023-03-30T01:59:18.809Z,100469.50
2023-03-30T02:01:50.454Z,100455.28
2023-03-30T02:04:24.117Z,100443.53
2023-03-30T02:07:00.571Z,100441.94
2023-03-30T02:09:31.616Z,100463.50
2023-03-30T02:12:05.290Z,100442.59
2023-03-30T02:14:37.350Z,100442.72
2023-03-30T02:17:12.733Z,100435.09
2023-03-30T02:19:42.258Z,100438.44
2023-03-30T02:22:13.104Z,100432.16
2023-03-30T02:24:44.615Z,100435.91
2023-03-30T02:27:18.726Z,100442.59
2023-03-30T02:29:48.033Z,100442.81
2023-03-30T02:32:21.292Z,100439.19
2023-03-30T02:35:22.902Z,100438.81
2023-03-30T02:38:20.796Z,100441.63
2023-03-30T02:41:05.494Z,100440.88
2023-03-30T02:43:45.964Z,100440.78
2023-03-30T02:46:37.523Z,100446.72
2023-03-30T02:49:19.503Z,100450.31
2023-03-30T02:51:51.965Z,100445.72
2023-03-30T02:54:33.166Z,100452.28
2023-03-30T02:57:11.412Z,100455.56
2023-03-30T02:59:51.402Z,100456.31
2023-03-30T03:02:24.807Z,100441.94
2023-03-30T03:04:54.733Z,100443.63
2023-03-30T03:07:24.029Z,100449.72
2023-03-30T03:09:53.610Z,100439.06
2023-03-30T03:12:22.259Z,100439.72
2023-03-30T03:14:52.875Z,100457.69
2023-03-30T03:17:22.588Z,100444.06
2023-03-30T03:19:51.478Z,100451.94
2023-03-30T03:22:20.100Z,100442.00
2023-03-30T03:24:49.711Z,100441.75
2023-03-30T03:27:18.846Z,100429.69
2023-03-30T03:29:49.803Z,100423.47
2023-03-30T03:32:28.794Z,100422.84
2023-03-30T03:34:57.709Z,100415.88
2023-03-30T03:37:26.794Z,100423.97
2023-03-30T03:39:56.043Z,100421.41
2023-03-30T03:42:25.245Z,100420.31
2023-03-30T03:44:54.767Z,100417.34
2023-03-30T03:47:30.417Z,100411.06
2023-03-30T03:50:01.439Z,100409.44
2023-03-30T03:52:31.932Z,100406.03
2023-03-30T03:55:01.258Z,100406.13
2023-03-30T03:57:31.020Z,100405.97
2023-03-30T04:00:03.384Z,100398.63
2023-03-30T04:02:35.209Z,100392.16
2023-03-30T04:05:08.196Z,100398.44
2023-03-30T04:07:46.563Z,100384.72
2023-03-30T04:10:21.670Z,100387.94
2023-03-30T04:12:52.906Z,100374.03
2023-03-30T04:15:22.124Z,100382.78
2023-03-30T04:17:58.643Z,100377.63
2023-03-30T04:20:29.397Z,100385.31
2023-03-30T04:23:01.989Z,100377.91
2023-03-30T04:25:31.843Z,100390.31
2023-03-30T04:28:01.029Z,100385.81
2023-03-30T04:30:30.792Z,100375.91
2023-03-30T04:33:06.463Z,100391.16
2023-03-30T04:35:36.764Z,100371.66
2023-03-30T04:38:07.613Z,100368.47
2023-03-30T04:40:42.319Z,100374.22
2023-03-30T04:43:14.673Z,100375.44
2023-03-30T04:45:44.763Z,100378.94
2023-03-30T04:48:15.844Z,100368.19
2023-03-30T04:50:53.139Z,100375.50
2023-03-30T04:53:23.372Z,100360.88
2023-03-30T04:55:55.248Z,100354.91
2023-03-30T04:58:24.122Z,100361.16
2023-03-30T05:00:54.537Z,100359.91
2023-03-30T05:03:27.517Z,100360.91
2023-03-30T05:05:59.435Z,100359.72
2023-03-30T05:08:30.763Z,100372.09
2023-03-30T05:11:02.973Z,100367.66
2023-03-30T05:13:31.887Z,100371.72
2023-03-30T05:16:01.866Z,100378.78
2023-03-30T05:18:32.081Z,100380.69
2023-03-30T05:21:02.289Z,100382.34
2023-03-30T05:23:32.554Z,100364.13
2023-03-30T05:26:01.611Z,100373.88
2023-03-30T05:28:32.602Z,100378.41
2023-03-30T05:31:02.891Z,100390.25
2023-03-30T05:33:50.067Z,100383.91
2023-03-30T05:36:22.104Z,100383.94
2023-03-30T05:38:52.512Z,100394.84
2023-03-30T05:41:30.280Z,100389.66
2023-03-30T05:44:00.443Z,100398.88
2023-03-30T05:46:30.187Z,100397.34
2023-03-30T05:51:47.067Z,100401.50
2023-03-30T05:54:20.080Z,100412.31
2023-03-30T06:02:26.835Z,100414.00
2023-03-30T06:05:02.687Z,100397.94
2023-03-30T06:07:33.248Z,100400.97
2023-03-30T06:10:19.966Z,100396.97
2023-03-30T06:13:03.557Z,100408.00
2023-03-30T06:15:54.311Z,100411.06
2023-03-30T06:18:23.384Z,100415.56
2023-03-30T06:21:08.797Z,100410.09
2023-03-30T06:23:38.223Z,100396.22
2023-03-30T06:26:10.041Z,100411.84
2023-03-30T06:28:41.628Z,100421.16
2023-03-30T06:31:13.029Z,100418.59
2023-03-30T06:33:42.193Z,100415.97
2023-03-30T06:36:16.953Z,100429.34
2023-03-30T06:38:52.547Z,100417.47
2023-03-30T06:41:22.665Z,100423.00
2023-03-30T06:43:53.479Z,100431.69
2023-03-30T06:46:23.885Z,100436.84
2023-03-30T06:48:54.363Z,100431.28
2023-03-30T06:51:41.535Z,100435.31
2023-03-30T06:54:10.898Z,100433.97
2023-03-30T06:56:40.560Z,100437.53
2023-03-30T06:59:15.375Z,100439.53
2023-03-30T07:04:32.050Z,100440.75
2023-03-30T07:07:54.719Z,100455.94
2023-03-30T07:10:38.090Z,100443.44
2023-03-30T07:31:59.494Z,100470.63
2023-03-30T07:56:46.549Z,100489.19
2023-03-30T07:59:19.131Z,100494.22
2023-03-30T08:04:49.647Z,100497.91
2023-03-30T08:07:32.385Z,100498.50
2023-03-30T08:10:12.852Z,100505.88
2023-03-30T08:12:45.994Z,100518.06
2023-03-30T08:15:18.118Z,100511.97
2023-03-30T08:17:48.531Z,100523.41
2023-03-30T08:20:20.407Z,100511.19
2023-03-30T08:25:52.378Z,100513.28
2023-03-30T08:28:55.329Z,100522.09
2023-03-30T08:31:45.510Z,100522.00
2023-03-30T08:37:31.451Z,100521.56
2023-03-30T08:40:06.372Z,100537.97
2023-03-30T08:43:27.786Z,100531.34
2023-03-30T08:49:17.766Z,100534.03
2023-03-30T08:51:59.688Z,100535.31
2023-03-30T09:04:35.171Z,100542.81
2023-03-30T09:13:22.155Z,100547.72
2023-03-30T09:15:57.325Z,100561.63
2023-03-30T09:18:33.884Z,100555.56
2023-03-30T09:21:07.136Z,100540.44
2023-03-30T09:23:40.876Z,100555.03
2023-03-30T09:26:22.636Z,100547.09
2023-03-30T09:29:01.142Z,100567.59
2023-03-30T09:31:44.955Z,100571.41
2023-03-30T09:34:28.443Z,100565.28
2023-03-30T09:37:19.431Z,100567.56
2023-03-30T09:47:13.768Z,100573.47
2023-03-30T09:52:47.892Z,100570.50
2023-03-30T09:55:51.071Z,100577.78
2023-03-30T09:58:30.113Z,100589.47
2023-03-30T10:01:50.541Z,100573.91
2023-03-30T10:04:20.180Z,100586.44
2023-03-30T10:06:52.645Z,100588.06
2023-03-30T10:09:25.161Z,100603.81
2023-03-30T10:12:03.772Z,100589.72
2023-03-30T10:14:38.672Z,100599.78
2023-03-30T10:17:10.322Z,100599.09
2023-03-30T10:19:48.105Z,100609.44
2023-03-30T10:22:23.138Z,100599.75
2023-03-30T10:24:57.453Z,100623.34
2023-03-30T10:27:35.526Z,100614.50
2023-03-30T10:30:24.835Z,100597.03
2023-03-30T10:33:03.181Z,100620.50
2023-03-30T10:38:24.630Z,100622.34
2023-03-30T10:41:04.074Z,100613.44
2023-03-30T10:43:43.806Z,100621.47
2023-03-30T10:46:20.520Z,100616.72
2023-03-30T10:49:13.536Z,100602.34
2023-03-30T10:55:26.778Z,100623.56
2023-03-30T10:58:09.408Z,100614.78
2023-03-30T11:01:08.402Z,100619.09
2023-03-30T11:03:40.835Z,100620.91
2023-03-30T11:06:18.725Z,100625.03
2023-03-30T11:08:51.929Z,100630.19
2023-03-30T11:11:27.566Z,100629.38
2023-03-30T11:14:01.971Z,100620.09
2023-03-30T11:16:40.533Z,100628.25
2023-03-30T11:19:16.105Z,100621.53
2023-03-30T11:21:56.801Z,100631.56
2023-03-30T11:24:28.174Z,100639.28
2023-03-30T11:27:08.189Z,100640.81
2023-03-30T11:29:45.026Z,100633.97
2023-03-30T11:32:27.313Z,100635.59
2023-03-30T11:35:06.988Z,100637.25
2023-03-30T11:37:43.689Z,100632.09
2023-03-30T11:40:19.265Z,100645.97
2023-03-30T11:42:48.882Z,100669.25
2023-03-30T11:45:53.426Z,100642.09
2023-03-30T11:48:57.313Z,100633.19
2023-03-30T11:51:51.109Z,100642.44
2023-03-30T11:54:44.990Z,100666.13
2023-03-30T11:57:35.830Z,100651.09
2023-03-30T12:00:26.731Z,100647.72
2023-03-30T12:03:06.629Z,100651.56
2023-03-30T12:05:39.789Z,100644.09
2023-03-30T12:08:25.567Z,100651.25
2023-03-30T12:11:01.476Z,100655.19
2023-03-30T12:13:41.007Z,100659.81
2023-03-30T12:16:28.212Z,100647.28
2023-03-30T12:19:11.808Z,100659.41
2023-03-30T12:21:49.068Z,100663.09
2023-03-30T12:24:25.647Z,100645.69
2023-03-30T12:27:05.279Z,100653.28
2023-03-30T12:32:29.010Z,100668.22
2023-03-30T12:34:59.695Z,100653.50
2023-03-30T12:37:35.303Z,100655.94
2023-03-30T12:40:09.191Z,100659.56
2023-03-30T12:42:47.018Z,100649.84
2023-03-30T12:45:32.964Z,100646.81
2023-03-30T12:48:26.391Z,100649.72
2023-03-30T12:51:19.160Z,100646.53
2023-03-30T12:54:30.569Z,100649.47
2023-03-30T12:57:10.715Z,100643.88
2023-03-30T13:00:23.569Z,100647.66
2023-03-30T13:03:27.829Z,100655.72
2023-03-30T13:05:59.524Z,100648.69
2023-03-30T13:08:37.190Z,100655.78
2023-03-30T13:11:15.409Z,100661.34
2023-03-30T13:13:53.128Z,100652.84
2023-03-30T13:17:17.638Z,100650.44
2023-03-30T13:20:12.699Z,100646.13
2023-03-30T13:23:28.484Z,100657.63
2023-03-30T13:26:08.431Z,100647.41
2023-03-30T13:28:57.020Z,100648.22
2023-03-30T13:31:50.588Z,100632.00
2023-03-30T13:34:38.824Z,100647.25
2023-03-30T13:37:17.685Z,100635.63
2023-03-30T13:39:54.011Z,100650.97
2023-03-30T13:42:42.675Z,100636.59
2023-03-30T13:45:32.134Z,100645.84
2023-03-30T13:48:17.674Z,100643.00
2023-03-30T13:50:57.057Z,100633.94
2023-03-30T13:53:49.521Z,100641.53
2023-03-30T13:56:21.533Z,100637.25
2023-03-30T13:58:56.200Z,100635.94
2023-03-30T14:01:26.994Z,100630.59
2023-03-30T14:04:03.456Z,100630.19
2023-03-30T14:06:39.479Z,100630.72
2023-03-30T14:09:14.904Z,100630.72
2023-03-30T14:11:45.951Z,100626.78
2023-03-30T14:14:22.294Z,100620.16
2023-03-30T14:16:52.248Z,100634.25
2023-03-30T14:19:26.536Z,100618.59
2023-03-30T14:22:01.953Z,100635.16
2023-03-30T14:24:32.496Z,100633.56
2023-03-30T14:27:06.224Z,100626.59
2023-03-30T14:29:35.498Z,100618.66
2023-03-30T14:32:08.569Z,100624.31
2023-03-30T14:34:39.014Z,100622.69
2023-03-30T14:37:12.550Z,100620.44
2023-03-30T14:39:46.564Z,100629.22
2023-03-30T14:42:26.551Z,100635.09
2023-03-30T14:44:59.666Z,100623.03
2023-03-30T14:47:30.566Z,100620.75
2023-03-30T14:50:02.453Z,100642.69
2023-03-30T14:52:39.843Z,100628.88
2023-03-30T14:55:17.558Z,100626.16
2023-03-30T14:57:48.301Z,100627.59
2023-03-30T15:00:24.696Z,100629.59
2023-03-30T15:02:58.789Z,100619.88
2023-03-30T15:12:59.766Z,100626.38
2023-03-30T15:15:44.552Z,100627.75
2023-03-30T15:18:24.623Z,100620.00
2023-03-30T15:20:55.233Z,100635.88
2023-03-30T15:23:27.009Z,100632.84
2023-03-30T15:26:00.894Z,100614.91
2023-03-30T15:28:35.456Z,100615.16
2023-03-30T15:31:06.878Z,100612.34
2023-03-30T15:33:44.453Z,100622.44
2023-03-30T15:36:22.457Z,100626.25
2023-03-30T15:38:54.854Z,100627.47
2023-03-30T15:41:27.444Z,100614.41
2023-03-30T15:44:00.416Z,100626.00
2023-03-30T15:46:37.194Z,100634.31
2023-03-30T15:49:09.078Z,100642.94
2023-03-30T15:51:44.301Z,100635.00
2023-03-30T15:54:15.960Z,100628.44
2023-03-30T15:56:58.932Z,100628.44
2023-03-30T15:59:33.577Z,100626.44
2023-03-30T16:02:17.620Z,100625.81
2023-03-30T16:04:46.491Z,100622.38
2023-03-30T16:07:29.398Z,100617.88
2023-03-30T16:10:01.920Z,100609.28
2023-03-30T16:12:32.863Z,100608.88
2023-03-30T16:15:02.792Z,100609.31
2023-03-30T16:17:36.392Z,100612.19
2023-03-30T16:20:17.239Z,100607.97
2023-03-30T16:22:50.871Z,100611.72
2023-03-30T16:25:31.268Z,100610.97
2023-03-30T16:28:07.714Z,100613.34
2023-03-30T16:30:45.470Z,100609.03
2023-03-30T16:33:16.417Z,100609.41
2023-03-30T16:35:45.482Z,100606.38
2023-03-30T16:38:18.933Z,100609.13
2023-03-30T16:40:54.346Z,100612.41
2023-03-30T16:43:24.338Z,100600.16
2023-03-30T16:45:55.190Z,100611.31
2023-03-30T16:48:30.520Z,100609.28
2023-03-30T16:50:59.548Z,100608.91
2023-03-30T16:53:29.830Z,100604.94
2023-03-30T16:56:04.354Z,100607.59
2023-03-30T16:58:34.684Z,100604.47
2023-03-30T17:01:05.228Z,100605.66
2023-03-30T17:03:36.127Z,100599.81
2023-03-30T17:06:07.382Z,100610.91
2023-03-30T17:08:37.044Z,100618.84
2023-03-30T17:11:11.748Z,100609.69
2023-03-30T17:13:45.662Z,100613.16
2023-03-30T17:16:24.044Z,100611.22
2023-03-30T17:18:54.992Z,100621.25
2023-03-30T17:21:25.275Z,100626.47
2023-03-30T17:23:55.763Z,100619.66
2023-03-30T17:26:39.599Z,100630.00
2023-03-30T17:29:11.666Z,100627.16
2023-03-30T17:31:45.972Z,100619.59
2023-03-30T17:34:16.679Z,100618.34
2023-03-30T17:36:46.162Z,100628.16
2023-03-30T17:39:20.335Z,100620.53
2023-03-30T17:41:53.030Z,100622.72
2023-03-30T17:44:38.541Z,100627.00
2023-03-30T17:47:07.677Z,100621.13
2023-03-30T17:49:42.572Z,100623.06
2023-03-30T17:52:14.030Z,100619.44
2023-03-30T17:54:44.343Z,100615.75
2023-03-30T17:57:18.942Z,100624.53
2023-03-30T17:59:47.963Z,100616.19
2023-03-30T18:02:18.117Z,100626.97
2023-03-30T18:04:49.561Z,100619.34
2023-03-30T18:07:22.583Z,100623.66
2023-03-30T18:09:52.328Z,100637.91
2023-03-30T18:12:22.269Z,100629.91
2023-03-30T18:14:56.596Z,100643.34
2023-03-30T18:17:25.932Z,100641.13
2023-03-30T18:19:57.741Z,100637.63
2023-03-30T18:22:27.352Z,100645.06
2023-03-30T18:24:58.194Z,100637.72
2023-03-30T18:30:59.973Z,100633.13
2023-03-30T18:33:45.859Z,100636.63
2023-03-30T18:39:52.565Z,100642.09
2023-03-30T18:46:30.080Z,100633.72
2023-03-30T18:49:08.071Z,100632.53
2023-03-30T18:51:44.969Z,100634.84
2023-03-30T18:54:35.848Z,100622.75
2023-03-30T18:57:07.322Z,100632.59
2023-03-30T18:59:41.213Z,100621.22
2023-03-30T19:02:20.598Z,100626.59
2023-03-30T19:08:06.464Z,100620.31
2023-03-30T19:10:40.645Z,100613.63
2023-03-30T19:13:13.269Z,100623.88
2023-03-30T19:15:54.477Z,100621.88
2023-03-30T19:18:25.120Z,100615.56
2023-03-30T19:20:55.663Z,100625.75
2023-03-30T19:23:25.831Z,100625.66
2023-03-30T19:25:55.887Z,100619.81
2023-03-30T19:28:28.782Z,100616.53
2023-03-30T19:30:59.528Z,100623.97
2023-03-30T19:33:28.748Z,100631.41
2023-03-30T19:35:57.337Z,100620.28
2023-03-30T19:38:27.722Z,100625.50
2023-03-30T19:41:01.846Z,100625.81
2023-03-30T19:43:31.958Z,100631.88
2023-03-30T19:46:04.997Z,100619.75
2023-03-30T19:48:35.517Z,100628.75
2023-03-30T19:51:04.569Z,100611.44
2023-03-30T19:53:34.741Z,100626.03
2023-03-30T19:56:03.670Z,100619.94
2023-03-30T19:58:33.033Z,100616.59
2023-03-30T20:01:06.046Z,100620.75
2023-03-30T20:03:35.535Z,100597.56
2023-03-30T20:06:04.495Z,100598.22
2023-03-30T20:08:39.130Z,100605.72
2023-03-30T20:11:12.511Z,100605.34
2023-03-30T20:13:45.854Z,100597.56
2023-03-30T20:16:20.582Z,100594.34
2023-03-30T20:18:54.193Z,100600.78
2023-03-30T20:21:24.957Z,100590.78
2023-03-30T20:23:56.088Z,100591.31
2023-03-30T20:26:24.560Z,100593.88
2023-03-30T20:28:53.466Z,100595.25
2023-03-30T20:31:21.921Z,100582.94
2023-03-30T20:33:50.882Z,100578.63
2023-03-30T20:36:19.375Z,100576.72
2023-03-30T20:38:48.521Z,100576.44
2023-03-30T20:41:21.774Z,100568.88
2023-03-30T20:43:57.093Z,100564.22
2023-03-30T20:46:35.440Z,100576.28
2023-03-30T20:49:03.864Z,100571.97
2023-03-30T20:51:32.605Z,100583.16
2023-03-30T20:54:01.222Z,100582.41
2023-03-30T20:56:31.221Z,100583.69
2023-03-30T20:58:59.769Z,100591.75
2023-03-30T21:01:30.242Z,100588.09
2023-03-30T21:04:01.194Z,100581.22
2023-03-30T21:06:31.911Z,100580.22
2023-03-30T21:09:03.280Z,100578.84
2023-03-30T21:11:35.341Z,100578.84
2023-03-30T21:14:03.751Z,100578.63
2023-03-30T21:16:32.251Z,100567.44
2023-03-30T21:19:00.871Z,100577.53
2023-03-30T21:21:29.283Z,100568.75
2023-03-30T21:23:58.145Z,100566.91
2023-03-30T21:26:26.602Z,100567.66
2023-03-30T21:28:56.706Z,100555.19
2023-03-30T21:31:25.844Z,100546.31
2023-03-30T21:33:54.518Z,100545.00
2023-03-30T21:36:23.290Z,100547.00
2023-03-30T21:38:51.878Z,100547.66
2023-03-30T21:41:24.160Z,100536.50
2023-03-30T21:43:52.646Z,100540.81
2023-03-30T21:46:25.092Z,100539.66
2023-03-30T21:48:54.545Z,100535.72
2023-03-30T21:51:26.403Z,100530.09
2023-03-30T21:53:57.392Z,100521.31
2023-03-30T21:56:29.473Z,100522.19
2023-03-30T21:58:58.587Z,100520.34
2023-03-30T22:01:28.753Z,100504.75
2023-03-30T22:03:57.772Z,100512.56
2023-03-30T22:06:26.379Z,100511.22
2023-03-30T22:08:54.877Z,100500.78
2023-03-30T22:11:25.711Z,100508.53
2023-03-30T22:13:55.265Z,100499.06
2023-03-30T22:16:29.943Z,100498.78
2023-03-30T22:18:58.762Z,100489.16
2023-03-30T22:21:34.460Z,100495.06
2023-03-30T22:24:04.275Z,100479.69
2023-03-30T22:26:33.354Z,100486.75
2023-03-30T22:29:01.880Z,100480.38
2023-03-30T22:31:32.116Z,100479.59
2023-03-30T22:34:00.577Z,100484.94
2023-03-30T22:36:31.351Z,100486.69
2023-03-30T22:39:02.396Z,100480.13
2023-03-30T22:41:31.121Z,100483.53
2023-03-30T22:44:00.100Z,100475.50
2023-03-30T22:46:36.224Z,100462.88
2023-03-30T22:49:04.702Z,100471.00
2023-03-30T22:51:34.103Z,100468.59
2023-03-30T22:54:02.529Z,100463.38
2023-03-30T22:56:31.786Z,100467.75
2023-03-30T22:59:01.318Z,100461.94
2023-03-30T23:01:32.068Z,100463.47
2023-03-30T23:04:03.344Z,100456.16
2023-03-30T23:06:33.779Z,100451.66
2023-03-30T23:09:02.772Z,100433.19
2023-03-30T23:11:32.078Z,100438.50
2023-03-30T23:14:05.132Z,100447.81
2023-03-30T23:16:36.043Z,100442.19
2023-03-30T23:19:06.714Z,100422.66
2023-03-30T23:21:36.232Z,100410.19
2023-03-30T23:24:07.582Z,100407.50
2023-03-30T23:26:36.481Z,100408.50
2023-03-30T23:29:05.556Z,100403.59
2023-03-30T23:31:34.642Z,100388.44
2023-03-30T23:34:03.377Z,100383.88
2023-03-30T23:36:33.101Z,100388.41
2023-03-30T23:39:01.471Z,100393.44
2023-03-30T23:41:30.223Z,100377.78
2023-03-30T23:43:58.632Z,100372.34
2023-03-30T23:46:27.352Z,100369.19
2023-03-30T23:48:55.802Z,100366.66
2023-03-30T23:51:24.366Z,100371.44
2023-03-30T23:53:56.726Z,100365.09
2023-03-30T23:56:29.994Z,100364.69
2023-03-30T23:58:59.146Z,100354.16
